Time;durP1;ratioP1;P1;durP2;ratioP2;P2;SDS_P1;SDS_P2;PMS_P1;PMS_P2;Temp;Humidity;BMP_temperature;BMP_pressure;BME280_temperature;BME280_humidity;BME280_pressure;Samples;Min_cycle;Max_cycle;Signal;HPM_P1;HPM_P2
2021/12/24 00:02:03;;;;;;;;;;;9.30;99.90;;;;;;7349080;19;109295;-86
2021/12/24 00:04:31;;;;;;;;;;;9.30;99.90;;;;;;7349809;19;109080;-86
2021/12/24 00:06:57;;;;;;;;;;;9.30;99.90;;;;;;7355220;19;112308;-86
2021/12/24 00:09:27;;;;;;;;;;;9.40;99.90;;;;;;7349740;19;111293;-86
2021/12/24 00:11:57;;;;;;;;;;;9.40;99.90;;;;;;7348638;19;112125;-86
2021/12/24 00:14:26;;;;;;;;;;;9.40;99.90;;;;;;7348625;19;109507;-86
2021/12/24 00:16:57;;;;;;;;;;;9.40;99.90;;;;;;7349094;19;110716;-86
2021/12/24 00:19:39;;;;;;;;;;;9.40;99.90;;;;;;7345087;19;115305;-86
2021/12/24 00:35:53;;;;;;;;;;;9.60;99.90;;;;;;7350529;19;109293;-86
2021/12/24 00:38:20;;;;;;;;;;;9.60;99.90;;;;;;7346332;19;111381;-86
2021/12/24 00:40:47;;;;;;;;;;;9.60;99.90;;;;;;7346485;19;112679;-88
2021/12/24 00:43:15;;;;;;;;;;;9.60;99.90;;;;;;7348459;19;109883;-86
2021/12/24 00:45:44;;;;;;;;;;;9.60;99.90;;;;;;7348892;19;110676;-87
2021/12/24 00:48:12;;;;;;;;;;;9.60;99.90;;;;;;7347803;19;112390;-88
2021/12/24 00:50:57;;;;;;;;;;;9.60;99.90;;;;;;7349325;19;109798;-87
2021/12/24 00:56:11;;;;;;;;;;;9.60;99.90;;;;;;7348772;19;109297;-87
2021/12/24 00:58:38;;;;;;;;;;;9.60;99.90;;;;;;7346227;19;112055;-87
2021/12/24 01:01:06;;;;;;;;;;;9.70;99.90;;;;;;7346585;19;111977;-87
2021/12/24 01:03:33;;;;;;;;;;;9.60;99.90;;;;;;7348579;19;109495;-86
2021/12/24 01:06:00;;;;;;;;;;;9.60;99.90;;;;;;7346674;19;109269;-87
2021/12/24 01:08:27;;;;;;;;;;;9.60;99.90;;;;;;7347793;19;111809;-86
2021/12/24 01:11:05;;;;;;;;;;;9.60;99.90;;;;;;7347187;19;109423;-86
2021/12/24 01:13:32;;;;;;;;;;;9.70;99.90;;;;;;7351411;19;113185;-87
2021/12/24 01:16:03;;;;;;;;;;;9.70;99.90;;;;;;7347459;19;109902;-87
2021/12/24 01:18:52;;;;;;;;;;;9.70;99.90;;;;;;7347111;19;112014;-85
2021/12/24 01:21:51;;;;;;;;;;;9.70;99.90;;;;;;7346732;19;110290;-85
2021/12/24 01:24:28;;;;;;;;;;;9.60;99.90;;;;;;7348572;19;109307;-86
2021/12/24 01:27:06;;;;;;;;;;;9.70;99.90;;;;;;7346882;19;110629;-87
2021/12/24 01:29:46;;;;;;;;;;;9.60;99.90;;;;;;7345808;19;112429;-87
2021/12/24 01:40:27;;;;;;;;;;;9.70;99.90;;;;;;7347415;19;112525;-86
2021/12/24 01:42:54;;;;;;;;;;;9.70;99.90;;;;;;7347275;19;112414;-85
2021/12/24 01:45:24;;;;;;;;;;;9.70;99.90;;;;;;7347355;19;109427;-86
2021/12/24 01:47:54;;;;;;;;;;;9.70;99.90;;;;;;7346930;19;114180;-88
2021/12/24 01:50:22;;;;;;;;;;;9.70;99.90;;;;;;7346589;19;111970;-85
2021/12/24 01:52:50;;;;;;;;;;;9.80;99.90;;;;;;7345482;19;110290;-87
2021/12/24 01:55:17;;;;;;;;;;;9.80;99.90;;;;;;7347739;19;111169;-87
2021/12/24 01:57:45;;;;;;;;;;;9.80;99.90;;;;;;7347130;19;110597;-87
2021/12/24 02:00:16;;;;;;;;;;;9.70;99.90;;;;;;7351678;19;109458;-87
2021/12/24 02:02:43;;;;;;;;;;;9.70;99.90;;;;;;7345230;19;115133;-87
2021/12/24 02:05:10;;;;;;;;;;;9.80;99.90;;;;;;7347248;19;109637;-86
2021/12/24 02:07:37;;;;;;;;;;;9.80;99.90;;;;;;7346801;19;110830;-86
2021/12/24 02:10:09;;;;;;;;;;;9.80;99.90;;;;;;7344762;19;111807;-87
2021/12/24 02:12:37;;;;;;;;;;;9.80;99.90;;;;;;7344786;19;109403;-85
2021/12/24 02:15:07;;;;;;;;;;;9.80;99.90;;;;;;7346337;19;111080;-86
2021/12/24 02:30:44;;;;;;;;;;;9.80;99.90;;;;;;7346807;19;112044;-86
2021/12/24 02:33:11;;;;;;;;;;;9.90;99.90;;;;;;7346606;19;109648;-86
2021/12/24 02:35:38;;;;;;;;;;;9.90;99.90;;;;;;7344319;19;110970;-86
2021/12/24 02:38:05;;;;;;;;;;;9.90;99.90;;;;;;7346006;19;111474;-86
2021/12/24 02:40:33;;;;;;;;;;;9.90;99.90;;;;;;7344076;19;110002;-86
2021/12/24 02:43:01;;;;;;;;;;;9.90;99.90;;;;;;7345926;19;109462;-86
2021/12/24 02:45:33;;;;;;;;;;;9.90;99.90;;;;;;7348960;19;115866;-86
2021/12/24 02:56:04;;;;;;;;;;;10.00;99.90;;;;;;7346161;19;109405;-86
2021/12/24 02:58:57;;;;;;;;;;;10.00;99.90;;;;;;7344425;19;112673;-86
2021/12/24 03:01:26;;;;;;;;;;;10.00;99.90;;;;;;7345072;19;109483;-87
2021/12/24 03:03:53;;;;;;;;;;;10.00;99.90;;;;;;7340997;19;110757;-87
2021/12/24 03:06:21;;;;;;;;;;;10.00;99.90;;;;;;7343421;19;112198;-86
2021/12/24 03:08:49;;;;;;;;;;;10.00;99.90;;;;;;7348422;19;109379;-87
2021/12/24 03:11:16;;;;;;;;;;;10.00;99.90;;;;;;7343340;19;111077;-87
2021/12/24 03:13:43;;;;;;;;;;;10.00;99.90;;;;;;7343195;19;109374;-86
2021/12/24 03:16:10;;;;;;;;;;;10.00;99.90;;;;;;7344314;19;113272;-86
2021/12/24 03:18:39;;;;;;;;;;;10.10;99.90;;;;;;7342139;19;112137;-86
2021/12/24 03:23:46;;;;;;;;;;;10.10;99.90;;;;;;7345094;19;111638;-86
2021/12/24 03:26:14;;;;;;;;;;;10.10;99.90;;;;;;7342093;19;112077;-86
2021/12/24 03:28:42;;;;;;;;;;;10.10;99.90;;;;;;7350044;19;109697;-86
2021/12/24 03:31:10;;;;;;;;;;;10.10;99.90;;;;;;7342390;19;112628;-87
2021/12/24 03:33:37;;;;;;;;;;;10.10;99.90;;;;;;7343803;19;110026;-86
2021/12/24 03:36:05;;;;;;;;;;;10.10;99.90;;;;;;7343253;19;109346;-86
2021/12/24 03:38:33;;;;;;;;;;;10.10;99.90;;;;;;7341872;19;117128;-87
2021/12/24 03:41:00;;;;;;;;;;;10.20;99.90;;;;;;7342391;19;109432;-86
2021/12/24 03:43:27;;;;;;;;;;;10.10;99.90;;;;;;7342670;19;110686;-87
2021/12/24 03:48:38;;;;;;;;;;;10.20;99.90;;;;;;7343549;19;109307;-87
2021/12/24 03:56:28;;;;;;;;;;;10.20;99.90;;;;;;7344736;19;113932;-86
2021/12/24 03:58:55;;;;;;;;;;;10.20;99.90;;;;;;7341398;19;110675;-86
2021/12/24 04:01:22;;;;;;;;;;;10.20;99.90;;;;;;7342061;19;109353;-86
2021/12/24 04:03:50;;;;;;;;;;;10.20;99.90;;;;;;7343843;19;113027;-86
2021/12/24 04:06:17;;;;;;;;;;;10.20;99.90;;;;;;7340649;19;114071;-87
2021/12/24 04:08:44;;;;;;;;;;;10.20;99.90;;;;;;7342591;19;109409;-87
2021/12/24 04:11:11;;;;;;;;;;;10.20;99.90;;;;;;7342086;19;111501;-87
2021/12/24 04:13:38;;;;;;;;;;;10.20;99.90;;;;;;7347513;19;112079;-87
2021/12/24 04:16:05;;;;;;;;;;;10.20;99.90;;;;;;7347233;19;110301;-86
2021/12/24 04:26:32;;;;;;;;;;;10.30;99.90;;;;;;7348943;19;115434;-86
2021/12/24 04:28:59;;;;;;;;;;;10.20;99.90;;;;;;7348476;19;109722;-87
2021/12/24 04:31:37;;;;;;;;;;;10.20;99.90;;;;;;7350599;19;110849;-86
2021/12/24 04:34:04;;;;;;;;;;;10.20;99.90;;;;;;7349747;19;111079;-87
2021/12/24 05:03:34;;;;;;;;;;;10.30;99.90;;;;;;7349293;19;109503;-86
2021/12/24 05:06:16;;;;;;;;;;;10.30;99.90;;;;;;7347998;19;112070;-87
2021/12/24 05:08:56;;;;;;;;;;;10.30;99.90;;;;;;7346091;19;112011;-87
2021/12/24 05:11:23;;;;;;;;;;;10.30;99.90;;;;;;7349914;19;109243;-87
2021/12/24 05:13:52;;;;;;;;;;;10.30;99.90;;;;;;7347293;19;112666;-87
2021/12/24 05:16:37;;;;;;;;;;;10.30;99.90;;;;;;7348488;19;111606;-85
2021/12/24 05:21:49;;;;;;;;;;;10.30;99.90;;;;;;7353497;19;114216;-87
2021/12/24 05:24:20;;;;;;;;;;;10.30;99.90;;;;;;7346525;19;109986;-87
2021/12/24 05:26:48;;;;;;;;;;;10.30;99.90;;;;;;7344453;19;111750;-87
2021/12/24 05:29:16;;;;;;;;;;;10.30;99.90;;;;;;7346887;19;111757;-87
2021/12/24 05:31:44;;;;;;;;;;;10.30;99.90;;;;;;7346940;19;109579;-87
2021/12/24 05:34:11;;;;;;;;;;;10.30;99.90;;;;;;7347027;19;114126;-87
2021/12/24 05:36:39;;;;;;;;;;;10.30;99.90;;;;;;7347612;19;112224;-87
2021/12/24 05:39:06;;;;;;;;;;;10.30;99.90;;;;;;7346923;19;109361;-87
2021/12/24 05:41:33;;;;;;;;;;;10.30;99.90;;;;;;7345086;19;113591;-87
2021/12/24 05:44:02;;;;;;;;;;;10.30;99.90;;;;;;7351553;19;111338;-86
2021/12/24 05:46:29;;;;;;;;;;;10.30;99.90;;;;;;7348177;19;109718;-87
2021/12/24 05:48:56;;;;;;;;;;;10.30;99.90;;;;;;7345802;19;112078;-87
2021/12/24 05:51:23;;;;;;;;;;;10.30;99.90;;;;;;7346734;19;109480;-87
2021/12/24 05:53:50;;;;;;;;;;;10.30;99.90;;;;;;7347331;19;109983;-87
2021/12/24 05:56:17;;;;;;;;;;;10.30;99.90;;;;;;7345586;19;112416;-87
2021/12/24 05:58:44;;;;;;;;;;;10.30;99.90;;;;;;7345636;19;109523;-86
2021/12/24 06:01:11;;;;;;;;;;;10.30;99.90;;;;;;7344821;19;110558;-87
2021/12/24 06:03:38;;;;;;;;;;;10.40;99.90;;;;;;7346589;19;111332;-87
2021/12/24 06:06:05;;;;;;;;;;;10.40;99.90;;;;;;7350963;19;109462;-87
2021/12/24 06:08:32;;;;;;;;;;;10.40;99.90;;;;;;7345480;19;115849;-87
2021/12/24 06:11:03;;;;;;;;;;;10.30;99.90;;;;;;7345106;19;109846;-87
2021/12/24 06:13:31;;;;;;;;;;;10.40;99.90;;;;;;7344138;19;114761;-87
2021/12/24 06:15:58;;;;;;;;;;;10.40;99.90;;;;;;7346680;19;116342;-87
2021/12/24 06:18:27;;;;;;;;;;;10.40;99.90;;;;;;7345112;19;109527;-86
2021/12/24 06:20:55;;;;;;;;;;;10.40;99.90;;;;;;7342401;19;111431;-87
2021/12/24 06:23:23;;;;;;;;;;;10.40;99.90;;;;;;7342509;19;110983;-88
2021/12/24 06:25:53;;;;;;;;;;;10.30;99.90;;;;;;7344314;19;109449;-87
2021/12/24 06:28:20;;;;;;;;;;;10.30;99.90;;;;;;7349978;19;110926;-87
2021/12/24 06:30:47;;;;;;;;;;;10.30;99.90;;;;;;7345468;19;109328;-86
2021/12/24 06:33:14;;;;;;;;;;;10.40;99.90;;;;;;7346056;19;111048;-87
2021/12/24 06:35:41;;;;;;;;;;;10.40;99.90;;;;;;7344091;19;113154;-88
2021/12/24 06:38:08;;;;;;;;;;;10.40;99.90;;;;;;7342872;19;109374;-87
2021/12/24 06:40:35;;;;;;;;;;;10.30;99.90;;;;;;7343145;19;110349;-87
2021/12/24 06:43:03;;;;;;;;;;;10.40;99.90;;;;;;7345057;19;110772;-87
2021/12/24 06:45:30;;;;;;;;;;;10.40;99.90;;;;;;7340892;19;109597;-87
2021/12/24 06:47:58;;;;;;;;;;;10.40;99.90;;;;;;7341495;19;113591;-87
2021/12/24 06:50:25;;;;;;;;;;;10.40;99.90;;;;;;7347474;19;111440;-88
2021/12/24 06:52:53;;;;;;;;;;;10.40;99.90;;;;;;7344963;19;114610;-88
2021/12/24 06:55:22;;;;;;;;;;;10.40;99.90;;;;;;7338135;19;114297;-87
2021/12/24 06:57:49;;;;;;;;;;;10.40;99.90;;;;;;7344381;19;109523;-88
2021/12/24 07:00:18;;;;;;;;;;;10.30;99.90;;;;;;7343144;19;114010;-88
2021/12/24 07:02:45;;;;;;;;;;;10.40;99.90;;;;;;7343192;19;112021;-88
2021/12/24 07:05:12;;;;;;;;;;;10.40;99.90;;;;;;7346112;19;109834;-88
2021/12/24 07:07:38;;;;;;;;;;;10.30;99.90;;;;;;7344855;19;111385;-88
2021/12/24 07:10:06;;;;;;;;;;;10.30;99.90;;;;;;7343420;19;114812;-87
2021/12/24 07:12:33;;;;;;;;;;;10.30;99.90;;;;;;7350598;19;109272;-88
2021/12/24 07:15:00;;;;;;;;;;;10.40;99.90;;;;;;7344766;19;111815;-86
2021/12/24 07:17:27;;;;;;;;;;;10.40;99.90;;;;;;7343438;19;109577;-88
2021/12/24 07:19:54;;;;;;;;;;;10.40;99.90;;;;;;7344412;19;113977;-88
2021/12/24 07:22:21;;;;;;;;;;;10.40;99.90;;;;;;7342654;19;113426;-88
2021/12/24 07:24:47;;;;;;;;;;;10.40;99.90;;;;;;7344228;19;109270;-89
2021/12/24 07:27:14;;;;;;;;;;;10.40;99.90;;;;;;7345012;19;113491;-88
2021/12/24 07:29:41;;;;;;;;;;;10.30;99.90;;;;;;7344100;19;115308;-88
2021/12/24 07:32:08;;;;;;;;;;;10.30;99.90;;;;;;7348235;19;109366;-88
2021/12/24 07:34:35;;;;;;;;;;;10.30;99.90;;;;;;7343700;19;112179;-88
2021/12/24 07:37:02;;;;;;;;;;;10.30;99.90;;;;;;7344346;19;109413;-87
2021/12/24 07:39:29;;;;;;;;;;;10.30;99.90;;;;;;7344014;19;113704;-87
2021/12/24 07:41:56;;;;;;;;;;;10.30;99.90;;;;;;7342158;19;112599;-88
2021/12/24 07:44:23;;;;;;;;;;;10.30;99.90;;;;;;7344747;19;109342;-88
2021/12/24 07:46:56;;;;;;;;;;;10.30;99.90;;;;;;7343389;19;113992;-88
2021/12/24 07:52:01;;;;;;;;;;;10.30;99.90;;;;;;7351719;19;109376;-87
2021/12/24 07:54:28;;;;;;;;;;;10.30;99.90;;;;;;7353908;19;111994;-88
2021/12/24 07:56:56;;;;;;;;;;;10.30;99.90;;;;;;7350956;19;109425;-86
2021/12/24 07:59:23;;;;;;;;;;;10.30;99.90;;;;;;7348566;19;111166;-87
2021/12/24 08:01:52;;;;;;;;;;;10.30;99.90;;;;;;7348088;19;111375;-87
2021/12/24 08:04:21;;;;;;;;;;;10.30;99.90;;;;;;7349459;19;110328;-88
2021/12/24 08:06:48;;;;;;;;;;;10.30;99.90;;;;;;7350231;19;110251;-88
2021/12/24 08:09:15;;;;;;;;;;;10.30;99.90;;;;;;7350089;19;111535;-88
2021/12/24 08:11:42;;;;;;;;;;;10.30;99.90;;;;;;7349234;19;109440;-87
2021/12/24 08:14:09;;;;;;;;;;;10.30;99.90;;;;;;7348946;19;112521;-88
2021/12/24 08:16:36;;;;;;;;;;;10.30;99.90;;;;;;7355768;19;115064;-88
2021/12/24 08:19:03;;;;;;;;;;;10.30;99.90;;;;;;7350227;19;111234;-88
2021/12/24 08:21:30;;;;;;;;;;;10.30;99.90;;;;;;7348503;19;112882;-88
2021/12/24 08:23:57;;;;;;;;;;;10.30;99.90;;;;;;7350177;19;109501;-88
2021/12/24 08:26:25;;;;;;;;;;;10.30;99.90;;;;;;7347478;19;110705;-88
2021/12/24 08:28:52;;;;;;;;;;;10.40;99.90;;;;;;7350089;19;111381;-88
2021/12/24 08:31:19;;;;;;;;;;;10.40;99.90;;;;;;7348253;19;109462;-88
2021/12/24 08:33:46;;;;;;;;;;;10.30;99.90;;;;;;7349948;19;115638;-88
2021/12/24 08:36:13;;;;;;;;;;;10.30;99.90;;;;;;7349861;19;112128;-86
2021/12/24 08:38:41;;;;;;;;;;;10.40;99.90;;;;;;7353954;19;109425;-87
2021/12/24 08:41:08;;;;;;;;;;;10.40;99.90;;;;;;7347582;19;113633;-87
2021/12/24 08:43:35;;;;;;;;;;;10.40;99.90;;;;;;7346758;19;109351;-85
2021/12/24 08:46:02;;;;;;;;;;;10.30;99.90;;;;;;7349711;19;110936;-85
2021/12/24 08:48:28;;;;;;;;;;;10.30;99.90;;;;;;7347515;19;112514;-85
2021/12/24 08:50:55;;;;;;;;;;;10.20;99.90;;;;;;7350668;19;109316;-85
2021/12/24 08:53:23;;;;;;;;;;;10.20;99.90;;;;;;7347776;19;110832;-84
2021/12/24 08:55:50;;;;;;;;;;;10.20;99.90;;;;;;7346558;19;112627;-85
2021/12/24 08:58:17;;;;;;;;;;;10.20;99.90;;;;;;7348042;19;109427;-85
2021/12/24 09:00:44;;;;;;;;;;;10.20;99.90;;;;;;7346731;19;112282;-85
2021/12/24 09:03:11;;;;;;;;;;;10.20;99.90;;;;;;7342217;19;109482;-85
2021/12/24 09:05:38;;;;;;;;;;;10.20;99.90;;;;;;7343701;19;110184;-86
2021/12/24 09:08:05;;;;;;;;;;;10.20;99.90;;;;;;7336736;19;112072;-85
2021/12/24 09:10:32;;;;;;;;;;;10.20;99.90;;;;;;7344555;19;109456;-84
2021/12/24 09:12:59;;;;;;;;;;;10.20;99.90;;;;;;7348011;19;110718;-84
2021/12/24 09:15:29;;;;;;;;;;;10.20;99.90;;;;;;7347835;19;112063;-84
2021/12/24 09:17:58;;;;;;;;;;;10.20;99.90;;;;;;7349729;19;109222;-84
2021/12/24 09:20:30;;;;;;;;;;;10.20;99.90;;;;;;7346688;19;111044;-84
2021/12/24 09:23:00;;;;;;;;;;;10.20;99.90;;;;;;7352898;19;111854;-84
2021/12/24 09:25:27;;;;;;;;;;;10.20;99.90;;;;;;7347643;19;110880;-85
2021/12/24 09:27:54;;;;;;;;;;;10.20;99.90;;;;;;7346797;19;112316;-84
2021/12/24 09:30:21;;;;;;;;;;;10.20;99.90;;;;;;7341507;19;110085;-85
2021/12/24 09:32:48;;;;;;;;;;;10.30;99.90;;;;;;7344278;19;110731;-84
2021/12/24 09:35:16;;;;;;;;;;;10.30;99.90;;;;;;7347174;19;112807;-85
2021/12/24 09:37:43;;;;;;;;;;;10.30;99.90;;;;;;7346674;19;109487;-84
2021/12/24 09:40:11;;;;;;;;;;;10.30;99.90;;;;;;7347285;19;109487;-84
2021/12/24 09:42:38;;;;;;;;;;;10.30;99.90;;;;;;7347957;19;112191;-84
2021/12/24 09:45:05;;;;;;;;;;;10.30;99.90;;;;;;7346096;19;109356;-83
2021/12/24 09:47:33;;;;;;;;;;;10.30;99.90;;;;;;7341136;19;112478;-85
2021/12/24 09:50:00;;;;;;;;;;;10.30;99.90;;;;;;7347096;19;109400;-84
2021/12/24 09:52:27;;;;;;;;;;;10.40;99.90;;;;;;7345298;19;110952;-85
2021/12/24 09:54:53;;;;;;;;;;;10.40;99.90;;;;;;7345609;19;110523;-86
2021/12/24 09:57:20;;;;;;;;;;;10.40;99.90;;;;;;7345267;19;109405;-85
2021/12/24 09:59:47;;;;;;;;;;;10.40;99.90;;;;;;7347880;19;110869;-85
2021/12/24 10:02:17;;;;;;;;;;;10.40;99.90;;;;;;7343794;19;112516;-85
2021/12/24 10:04:44;;;;;;;;;;;10.30;99.90;;;;;;7351127;19;109472;-85
2021/12/24 10:07:12;;;;;;;;;;;10.40;99.90;;;;;;7345839;19;112318;-85
2021/12/24 10:09:41;;;;;;;;;;;10.40;99.90;;;;;;7346384;19;109459;-84
2021/12/24 10:12:09;;;;;;;;;;;10.30;99.90;;;;;;7346697;19;111835;-85
2021/12/24 10:14:47;;;;;;;;;;;10.40;99.90;;;;;;7344514;19;112307;-85
2021/12/24 10:17:18;;;;;;;;;;;10.40;99.90;;;;;;7344362;19;109278;-84
2021/12/24 10:19:50;;;;;;;;;;;10.40;99.90;;;;;;7345998;19;111153;-83
2021/12/24 10:22:17;;;;;;;;;;;10.50;99.90;;;;;;7341085;19;110302;-84
2021/12/24 10:24:57;;;;;;;;;;;10.50;99.90;;;;;;7346076;19;109787;-84
2021/12/24 10:27:27;;;;;;;;;;;10.50;99.90;;;;;;7350833;19;111109;-84
2021/12/24 10:29:54;;;;;;;;;;;10.50;99.90;;;;;;7345527;19;109504;-84
2021/12/24 10:32:22;;;;;;;;;;;10.50;99.90;;;;;;7346185;19;111048;-84
2021/12/24 10:34:49;;;;;;;;;;;10.40;99.90;;;;;;7344057;19;112200;-84
2021/12/24 10:37:22;;;;;;;;;;;10.50;99.90;;;;;;7345097;19;109395;-82
2021/12/24 10:39:51;;;;;;;;;;;10.50;99.90;;;;;;7345282;19;111101;-84
2021/12/24 10:42:37;;;;;;;;;;;10.50;99.90;;;;;;7343413;19;111996;-84
2021/12/24 10:45:06;;;;;;;;;;;10.50;99.90;;;;;;7344954;19;110479;-84
2021/12/24 10:47:38;;;;;;;;;;;10.50;99.90;;;;;;7346195;19;110079;-84
2021/12/24 10:50:29;;;;;;;;;;;10.50;99.90;;;;;;7346834;19;111791;-84
2021/12/24 10:53:14;;;;;;;;;;;10.50;99.90;;;;;;7342942;19;111020;-84
2021/12/24 10:55:48;;;;;;;;;;;10.50;99.90;;;;;;7343698;19;110567;-84
2021/12/24 10:58:16;;;;;;;;;;;10.50;99.90;;;;;;7339008;19;109438;-83
2021/12/24 11:00:48;;;;;;;;;;;10.50;99.90;;;;;;7339074;19;110511;-83
2021/12/24 11:03:22;;;;;;;;;;;10.50;99.90;;;;;;7335692;19;112528;-83
2021/12/24 11:06:02;;;;;;;;;;;10.50;99.90;;;;;;7339720;19;109959;-85
2021/12/24 11:08:29;;;;;;;;;;;10.50;99.90;;;;;;7341001;19;109187;-83
2021/12/24 11:10:57;;;;;;;;;;;10.50;99.90;;;;;;7335494;19;111507;-83
2021/12/24 11:13:31;;;;;;;;;;;10.50;99.90;;;;;;7348920;19;110011;-83
2021/12/24 11:16:02;;;;;;;;;;;10.50;99.90;;;;;;7342993;19;111784;-85
2021/12/24 11:18:31;;;;;;;;;;;10.50;99.90;;;;;;7344118;19;109334;-84
2021/12/24 11:21:08;;;;;;;;;;;10.50;99.90;;;;;;7344035;19;114513;-83
2021/12/24 11:23:36;;;;;;;;;;;10.50;99.90;;;;;;7343331;19;112102;-84
2021/12/24 11:26:05;;;;;;;;;;;10.50;99.90;;;;;;7342545;19;109284;-85
2021/12/24 11:28:33;;;;;;;;;;;10.60;99.90;;;;;;7345169;19;111033;-84
2021/12/24 11:31:02;;;;;;;;;;;10.50;99.90;;;;;;7344440;19;111661;-85
2021/12/24 11:33:30;;;;;;;;;;;10.60;99.90;;;;;;7345363;19;109572;-84
2021/12/24 11:35:58;;;;;;;;;;;10.50;99.90;;;;;;7349998;19;109516;-84
2021/12/24 11:38:32;;;;;;;;;;;10.50;99.90;;;;;;7344757;19;109298;-85
2021/12/24 11:41:00;;;;;;;;;;;10.50;99.90;;;;;;7345495;19;109456;-84
2021/12/24 11:43:30;;;;;;;;;;;10.60;99.90;;;;;;7341049;19;111942;-84
2021/12/24 11:46:00;;;;;;;;;;;10.50;99.90;;;;;;7343604;19;109377;-85
2021/12/24 11:48:31;;;;;;;;;;;10.50;99.90;;;;;;7341931;19;110912;-83
2021/12/24 11:51:07;;;;;;;;;;;10.60;99.90;;;;;;7344758;19;112358;-84
2021/12/24 11:53:34;;;;;;;;;;;10.60;99.90;;;;;;7344553;19;109211;-84
2021/12/24 11:56:03;;;;;;;;;;;10.60;99.90;;;;;;7347687;19;112995;-84
2021/12/24 11:58:32;;;;;;;;;;;10.60;99.90;;;;;;7343785;19;109650;-84
2021/12/24 12:01:04;;;;;;;;;;;10.50;99.90;;;;;;7343819;19;111111;-83
2021/12/24 12:03:31;;;;;;;;;;;10.60;99.90;;;;;;7340057;19;112145;-85
2021/12/24 12:05:58;;;;;;;;;;;10.60;99.90;;;;;;7343928;19;109321;-84
2021/12/24 12:08:25;;;;;;;;;;;10.60;99.90;;;;;;7344267;19;110086;-83
2021/12/24 12:10:53;;;;;;;;;;;10.50;99.90;;;;;;7341638;19;115405;-83
2021/12/24 12:13:38;;;;;;;;;;;10.50;99.90;;;;;;7344293;19;109407;-84
2021/12/24 12:16:07;;;;;;;;;;;10.50;99.90;;;;;;7343123;19;111223;-84
2021/12/24 12:18:44;;;;;;;;;;;10.40;99.90;;;;;;7348235;19;110407;-84
2021/12/24 12:21:14;;;;;;;;;;;10.40;99.90;;;;;;7341916;19;109466;-85
2021/12/24 12:26:49;;;;;;;;;;;10.40;99.90;;;;;;7342203;19;109896;-84
2021/12/24 12:29:25;;;;;;;;;;;10.40;99.90;;;;;;7341055;19;111469;-85
2021/12/24 12:31:55;;;;;;;;;;;10.50;99.90;;;;;;7341335;19;112424;-84
2021/12/24 12:34:38;;;;;;;;;;;10.50;99.90;;;;;;7341760;19;109431;-84
2021/12/24 12:37:16;;;;;;;;;;;10.50;99.90;;;;;;7344073;19;109273;-85
2021/12/24 12:39:44;;;;;;;;;;;10.50;99.90;;;;;;7346956;19;110487;-85
2021/12/24 12:42:14;;;;;;;;;;;10.50;99.90;;;;;;7354532;19;109437;-84
2021/12/24 12:44:45;;;;;;;;;;;10.50;99.90;;;;;;7348725;19;112612;-84
2021/12/24 12:47:12;;;;;;;;;;;10.50;99.90;;;;;;7342328;19;109461;-84
2021/12/24 12:49:39;;;;;;;;;;;10.50;99.90;;;;;;7349441;19;111815;-85
2021/12/24 12:52:16;;;;;;;;;;;10.50;99.90;;;;;;7347789;19;111988;-84
2021/12/24 12:54:44;;;;;;;;;;;10.50;99.90;;;;;;7349206;19;109205;-84
2021/12/24 12:57:19;;;;;;;;;;;10.50;99.90;;;;;;7350041;19;110765;-83
2021/12/24 13:00:04;;;;;;;;;;;10.50;99.90;;;;;;7343930;19;111101;-84
2021/12/24 13:02:50;;;;;;;;;;;10.50;99.90;;;;;;7339867;19;109578;-85
2021/12/24 13:05:17;;;;;;;;;;;10.50;99.90;;;;;;7346096;19;111789;-83
2021/12/24 13:07:44;;;;;;;;;;;10.50;99.90;;;;;;7349234;19;109393;-84
2021/12/24 13:10:11;;;;;;;;;;;10.50;99.90;;;;;;7348004;19;110732;-83
2021/12/24 13:12:39;;;;;;;;;;;10.40;99.90;;;;;;7349791;19;111846;-83
2021/12/24 13:15:15;;;;;;;;;;;10.40;99.90;;;;;;7347888;19;109427;-84
2021/12/24 13:17:45;;;;;;;;;;;10.40;99.90;;;;;;7344729;19;110912;-84
2021/12/24 13:20:34;;;;;;;;;;;10.40;99.90;;;;;;7344490;19;115505;-84
2021/12/24 13:23:02;;;;;;;;;;;10.40;99.90;;;;;;7344747;19;109472;-83
2021/12/24 13:25:29;;;;;;;;;;;10.40;99.90;;;;;;7346405;19;111211;-84
2021/12/24 13:27:58;;;;;;;;;;;10.50;99.90;;;;;;7348639;19;112480;-84
2021/12/24 13:30:26;;;;;;;;;;;10.50;99.90;;;;;;7349337;19;111718;-85
2021/12/24 13:32:54;;;;;;;;;;;10.50;99.90;;;;;;7347990;19;112409;-85
2021/12/24 13:35:22;;;;;;;;;;;10.50;99.90;;;;;;7349584;19;109439;-84
2021/12/24 13:37:50;;;;;;;;;;;10.50;99.90;;;;;;7346172;19;111048;-84
2021/12/24 13:40:20;;;;;;;;;;;10.50;99.90;;;;;;7348074;19;112461;-85
2021/12/24 13:42:49;;;;;;;;;;;10.40;99.90;;;;;;7345457;19;109253;-84
2021/12/24 13:45:16;;;;;;;;;;;10.50;99.90;;;;;;7348393;19;109376;-84
2021/12/24 13:47:59;;;;;;;;;;;10.50;99.90;;;;;;7347524;19;111725;-84
2021/12/24 13:56:07;;;;;;;;;;;10.50;99.90;;;;;;7347705;19;109203;-84
2021/12/24 13:58:34;;;;;;;;;;;10.60;99.90;;;;;;7346690;19;109176;-85
2021/12/24 14:01:02;;;;;;;;;;;10.50;99.90;;;;;;7345233;19;112016;-85
2021/12/24 14:03:32;;;;;;;;;;;10.60;99.90;;;;;;7344819;19;109390;-84
2021/12/24 14:06:01;;;;;;;;;;;10.60;99.90;;;;;;7347063;19;110600;-85
2021/12/24 14:08:30;;;;;;;;;;;10.60;99.90;;;;;;7346015;19;112121;-85
2021/12/24 14:11:02;;;;;;;;;;;10.70;99.90;;;;;;7350380;19;110396;-85
2021/12/24 14:13:33;;;;;;;;;;;10.70;99.90;;;;;;7346581;19;112014;-85
2021/12/24 14:24:06;;;;;;;;;;;10.90;99.90;;;;;;7344858;19;109385;-85
2021/12/24 14:26:34;;;;;;;;;;;10.90;99.90;;;;;;7346351;19;110790;-85
2021/12/24 14:29:05;;;;;;;;;;;10.90;99.90;;;;;;7345302;19;112064;-85
2021/12/24 14:31:56;;;;;;;;;;;10.90;99.90;;;;;;7346818;19;109206;-85
2021/12/24 14:34:30;;;;;;;;;;;10.90;99.90;;;;;;7350491;19;111756;-84
2021/12/24 14:36:58;;;;;;;;;;;10.90;99.90;;;;;;7346576;19;109475;-85
2021/12/24 14:39:25;;;;;;;;;;;11.00;99.90;;;;;;7345590;19;110538;-85
2021/12/24 14:42:12;;;;;;;;;;;10.90;99.90;;;;;;7346992;19;112119;-85
2021/12/24 14:44:39;;;;;;;;;;;10.90;99.90;;;;;;7346247;19;109224;-85
2021/12/24 14:47:06;;;;;;;;;;;10.90;99.90;;;;;;7346855;19;109668;-85
2021/12/24 14:49:34;;;;;;;;;;;10.90;99.90;;;;;;7346584;19;110710;-85
2021/12/24 14:52:16;;;;;;;;;;;10.90;99.90;;;;;;7347245;19;109317;-85
2021/12/24 14:55:02;;;;;;;;;;;10.80;99.90;;;;;;7344035;19;110995;-85
2021/12/24 14:57:29;;;;;;;;;;;10.90;99.90;;;;;;7350402;19;110661;-85
2021/12/24 14:59:56;;;;;;;;;;;10.90;99.90;;;;;;7341685;19;109092;-85
2021/12/24 15:02:23;;;;;;;;;;;10.90;99.90;;;;;;7340496;19;112931;-85
2021/12/24 15:04:56;;;;;;;;;;;10.90;99.90;;;;;;7342805;19;109726;-85
2021/12/24 15:07:30;;;;;;;;;;;10.90;99.90;;;;;;7343970;19;110737;-86
2021/12/24 15:10:10;;;;;;;;;;;10.90;99.90;;;;;;7343632;19;112227;-87
2021/12/24 15:12:58;;;;;;;;;;;10.90;99.90;;;;;;7343815;19;109322;-86
2021/12/24 15:15:26;;;;;;;;;;;10.90;99.90;;;;;;7344152;19;110460;-86
2021/12/24 15:17:53;;;;;;;;;;;10.90;99.90;;;;;;7343733;19;115949;-88
2021/12/24 15:20:20;;;;;;;;;;;10.90;99.90;;;;;;7349241;19;109362;-87
2021/12/24 15:22:47;;;;;;;;;;;10.90;99.90;;;;;;7344707;19;112181;-88
2021/12/24 15:25:14;;;;;;;;;;;10.90;99.90;;;;;;7343359;19;109590;-87
2021/12/24 15:27:41;;;;;;;;;;;10.80;99.90;;;;;;7345213;19;111137;-87
2021/12/24 15:30:10;;;;;;;;;;;10.80;99.90;;;;;;7342391;19;110155;-87
2021/12/24 15:32:37;;;;;;;;;;;10.80;99.90;;;;;;7346237;19;109303;-88
2021/12/24 15:35:05;;;;;;;;;;;10.80;99.90;;;;;;7343532;19;113270;-88
2021/12/24 15:37:32;;;;;;;;;;;10.80;99.90;;;;;;7344419;19;111956;-88
2021/12/24 15:39:59;;;;;;;;;;;10.70;99.90;;;;;;7345360;19;109435;-87
2021/12/24 15:42:28;;;;;;;;;;;10.80;99.90;;;;;;7348063;19;113654;-87
2021/12/24 15:44:55;;;;;;;;;;;10.70;99.90;;;;;;7340553;19;109544;-87
2021/12/24 15:47:22;;;;;;;;;;;10.70;99.90;;;;;;7341760;19;111062;-88
2021/12/24 15:49:49;;;;;;;;;;;10.70;99.90;;;;;;7342213;19;111972;-86
2021/12/24 15:52:16;;;;;;;;;;;10.70;99.90;;;;;;7343062;19;109398;-86
2021/12/24 15:54:43;;;;;;;;;;;10.70;99.90;;;;;;7342577;19;111213;-86
2021/12/24 15:57:10;;;;;;;;;;;10.70;99.90;;;;;;7340179;19;112097;-85
2021/12/24 15:59:37;;;;;;;;;;;10.70;99.90;;;;;;7344550;19;109420;-86
2021/12/24 16:02:04;;;;;;;;;;;10.70;99.90;;;;;;7348192;19;111204;-86
2021/12/24 16:04:34;;;;;;;;;;;10.70;99.90;;;;;;7332530;19;111314;-86
2021/12/24 16:07:02;;;;;;;;;;;10.70;99.90;;;;;;7342453;19;111032;-86
2021/12/24 16:09:29;;;;;;;;;;;10.70;99.90;;;;;;7341977;19;112100;-86
2021/12/24 16:11:56;;;;;;;;;;;10.60;99.90;;;;;;7342616;19;110374;-86
2021/12/24 16:14:23;;;;;;;;;;;10.60;99.90;;;;;;7350208;19;110877;-85